Huvudsida
METAR-TAF:

METAR-TAF

Flygplatser :

Larnacas internationella flygplats

Larnaca, Cypern

latitud: 34-53N, longitud: 033-38E, höjd: 2 m

Aktuellt väderrapport

Denna rapport gjordes för 17 minuter sedan, klockan 08:30 UTC
Vind 9 kt från syd, varierande mellan syd/sydost och syd/sydväst
Temperatur 18°C
Fuktighet 59%
Tryck 1017 hPa
Sikt 10 km eller mer
Få moln på en höjd av 2500 ft

METAR: LCLK 200830Z 18009KT 150V210 9999 FEW025 18/10 Q1017 NOSIG

Tid: 10:47 (08:47 UTC)

Väderprognos

Denna rapport gjordes för 3 timmar och 17 minuter sedan, klockan 05:30 UTC
Prognos gäller från 20 kl. 06 UTC till 21 kl. 06 UTC
Vind 8 kt från väst
Sikt 10 km eller mer
Få moln på en höjd av 2500 ft
Blir
från 20 kl. 07 UTC till 20 kl. 11 UTC
Vind 18 kt från sydväst
Sannolikhet 30% :
Temporärt
från 20 kl. 21 UTC till 21 kl. 06 UTC
Sikt: 5000 m
regnskurar

TAF: LCLK 200530Z 2006/2106 28008KT 9999 FEW025 BECMG 2007/2011 22018KT PROB30 TEMPO 2021/2106 5000 SHRA

Aktuella väderrapporter och prognoser från 4000 flygplatser (METAR- och TAF-rapporter).

De tillgängliga stationerna syns som gula och röda prickar på kartan.

För musen över prickarna för att se namnen på stationerna.

Klicka sedan för att få väderrapporter och prognoser.

För att ändra kartan: Klicka på de gröna knapparna med ett svart kors på för att zooma in; den gröna knappen med ett streck på för att zooma ut; eller på de gröna pilarna för angränsande kartor.


METAR-TAF: